Time;durP1;ratioP1;P1;durP2;ratioP2;P2;SDS_P1;SDS_P2;PMS_P1;PMS_P2;Temp;Humidity;BMP_temperature;BMP_pressure;BME280_temperature;BME280_humidity;BME280_pressure;Samples;Min_cycle;Max_cycle;Signal;HPM_P1;HPM_P2
2022/09/09 00:01:04;;;;;;;;;;;;;;;5.46;74.85;100601.75;4977166;28;19926;-79
2022/09/09 00:03:45;;;;;;;;;;;;;;;5.43;75.33;100608.50;4982086;28;19926;-78
2022/09/09 00:06:28;;;;;;;;;;;;;;;5.49;75.25;100609.63;4976499;28;20301;-78
2022/09/09 00:08:54;;;;;;;;;;;;;;;5.51;75.21;100610.56;4977064;28;19926;-78
2022/09/09 00:11:26;;;;;;;;;;;;;;;5.53;75.25;100611.50;4960016;28;19925;-78
2022/09/09 00:14:00;;;;;;;;;;;;;;;5.58;74.62;100614.25;4990545;28;20334;-76
2022/09/09 00:16:30;;;;;;;;;;;;;;;5.57;75.18;100609.91;4996504;28;19926;-77
2022/09/09 00:19:05;;;;;;;;;;;;;;;5.57;75.41;100619.34;4996629;28;20024;-78
2022/09/09 00:21:53;;;;;;;;;;;;;;;5.61;75.30;100627.28;4978697;28;20311;-77
2022/09/09 00:24:27;;;;;;;;;;;;;;;5.62;75.27;100626.47;4978614;28;19925;-78
2022/09/09 00:27:01;;;;;;;;;;;;;;;5.64;75.26;100627.41;4996647;28;20377;-77
2022/09/09 00:29:29;;;;;;;;;;;;;;;5.66;74.82;100625.75;4996388;28;20441;-78
2022/09/09 00:32:09;;;;;;;;;;;;;;;5.71;74.81;100625.94;4996454;28;19980;-80
2022/09/09 00:35:03;;;;;;;;;;;;;;;5.73;74.94;100622.56;4993810;28;19930;-76
2022/09/09 00:37:35;;;;;;;;;;;;;;;5.77;74.57;100628.72;4935975;28;19925;-77
2022/09/09 00:40:29;;;;;;;;;;;;;;;5.81;75.01;100630.59;4975498;28;19933;-78
2022/09/09 00:43:10;;;;;;;;;;;;;;;5.84;74.89;100627.22;4975489;28;20383;-79
2022/09/09 00:45:38;;;;;;;;;;;;;;;5.86;74.78;100629.03;4978126;28;20307;-77
2022/09/09 00:48:16;;;;;;;;;;;;;;;5.87;74.66;100625.63;4979150;28;19926;-78
2022/09/09 00:50:47;;;;;;;;;;;;;;;5.87;74.51;100633.41;4964232;28;19932;-78
2022/09/09 00:53:30;;;;;;;;;;;;;;;5.85;74.33;100629.88;4975706;28;20383;-79
2022/09/09 00:56:00;;;;;;;;;;;;;;;5.81;74.87;100637.47;4976130;28;20390;-78
2022/09/09 00:58:27;;;;;;;;;;;;;;;5.75;74.87;100641.63;4975128;28;19926;-77
2022/09/09 01:01:03;;;;;;;;;;;;;;;5.73;75.07;100638.09;4976117;28;20020;-76
2022/09/09 01:03:33;;;;;;;;;;;;;;;5.75;75.05;100635.56;4959131;28;19941;-78
2022/09/09 01:06:11;;;;;;;;;;;;;;;5.79;74.94;100642.63;4975663;28;19930;-79
2022/09/09 01:08:56;;;;;;;;;;;;;;;5.81;75.28;100642.66;4976737;28;19977;-78
2022/09/09 01:11:32;;;;;;;;;;;;;;;5.84;75.04;100637.59;4976450;28;19926;-79
2022/09/09 01:14:03;;;;;;;;;;;;;;;5.85;75.29;100648.03;4959192;28;20381;-78
2022/09/09 01:16:34;;;;;;;;;;;;;;;5.84;74.91;100642.78;4959664;28;20409;-77
2022/09/09 01:19:02;;;;;;;;;;;;;;;5.84;75.25;100646.25;4976294;28;19930;-77
2022/09/09 01:21:39;;;;;;;;;;;;;;;5.86;75.14;100654.09;4975399;28;19937;-79
2022/09/09 01:24:25;;;;;;;;;;;;;;;5.87;75.21;100654.16;4976836;28;20036;-79
2022/09/09 01:27:05;;;;;;;;;;;;;;;5.91;75.14;100657.72;4976188;28;19934;-77
2022/09/09 01:29:32;;;;;;;;;;;;;;;5.91;75.19;100658.59;4975403;28;19949;-79
2022/09/09 01:32:00;;;;;;;;;;;;;;;5.92;74.73;100659.50;4996476;28;19926;-79
2022/09/09 01:34:31;;;;;;;;;;;;;;;5.90;75.14;100662.03;4980743;28;20005;-78
2022/09/09 01:36:58;;;;;;;;;;;;;;;5.92;75.00;100665.56;4986246;28;19973;-78
2022/09/09 01:39:26;;;;;;;;;;;;;;;5.90;75.12;100667.22;4977645;28;19925;-79
2022/09/09 01:42:08;;;;;;;;;;;;;;;5.92;74.97;100668.16;4994000;28;19926;-79
2022/09/09 01:44:36;;;;;;;;;;;;;;;5.90;74.82;100671.53;4977517;28;19925;-79
2022/09/09 01:47:04;;;;;;;;;;;;;;;5.91;75.21;100676.75;4977607;28;19933;-78
2022/09/09 01:49:32;;;;;;;;;;;;;;;5.94;74.79;100676.91;4995009;28;19985;-80
2022/09/09 01:52:08;;;;;;;;;;;;;;;5.95;75.07;100677.78;4977487;28;19972;-78
2022/09/09 01:54:37;;;;;;;;;;;;;;;5.92;74.68;100675.94;4977095;28;20373;-78
2022/09/09 01:57:19;;;;;;;;;;;;;;;5.90;75.01;100675.00;4977407;28;20454;-78
2022/09/09 01:59:58;;;;;;;;;;;;;;;5.90;74.77;100676.72;4993637;28;19932;-77
2022/09/09 02:02:47;;;;;;;;;;;;;;;5.90;74.95;100677.59;4977001;28;19933;-79
2022/09/09 02:05:31;;;;;;;;;;;;;;;5.94;74.94;100673.41;4977125;28;19925;-79
2022/09/09 02:08:03;;;;;;;;;;;;;;;5.95;75.05;100683.84;4961270;28;19926;-81
2022/09/09 02:10:43;;;;;;;;;;;;;;;5.94;74.89;100678.59;4977080;28;19936;-77
2022/09/09 02:13:25;;;;;;;;;;;;;;;5.92;75.09;100680.25;4976923;28;19964;-79
2022/09/09 02:15:55;;;;;;;;;;;;;;;5.88;75.00;100679.25;4976867;28;19932;-77
2022/09/09 02:18:37;;;;;;;;;;;;;;;5.83;75.14;100680.81;4976802;28;19926;-79
2022/09/09 02:21:06;;;;;;;;;;;;;;;5.77;75.27;100680.59;4976884;28;19932;-77
2022/09/09 02:23:34;;;;;;;;;;;;;;;5.74;75.49;100678.78;4976746;28;20477;-78
2022/09/09 02:26:07;;;;;;;;;;;;;;;5.68;75.21;100688.91;4993222;28;19987;-78
2022/09/09 02:28:34;;;;;;;;;;;;;;;5.61;75.83;100692.09;4993321;28;20020;-78
2022/09/09 02:31:02;;;;;;;;;;;;;;;5.56;76.17;100695.38;4994066;28;19951;-76
2022/09/09 02:33:41;;;;;;;;;;;;;;;5.51;75.94;100700.38;4976649;28;19925;-79
2022/09/09 02:36:10;;;;;;;;;;;;;;;5.44;75.88;100693.19;4972801;28;19945;-78
2022/09/09 02:38:41;;;;;;;;;;;;;;;5.39;75.95;100711.16;4976331;28;19929;-77
2022/09/09 02:41:12;;;;;;;;;;;;;;;5.30;76.55;100711.69;4984448;28;19930;-77
2022/09/09 02:43:39;;;;;;;;;;;;;;;5.22;76.35;100710.50;4976471;28;19925;-79
2022/09/09 02:46:14;;;;;;;;;;;;;;;5.17;76.51;100724.13;4993627;28;19983;-76
2022/09/09 02:48:56;;;;;;;;;;;;;;;5.15;76.56;100724.06;4993987;28;19934;-78
2022/09/09 02:51:36;;;;;;;;;;;;;;;5.14;76.70;100735.22;4976683;28;20019;-79
2022/09/09 02:54:04;;;;;;;;;;;;;;;5.10;77.17;100736.84;4992743;28;19976;-80
2022/09/09 02:56:33;;;;;;;;;;;;;;;5.09;76.65;100742.81;4976395;28;20023;-77
2022/09/09 02:59:03;;;;;;;;;;;;;;;5.09;77.01;100742.81;4992967;28;19926;-78
2022/09/09 03:01:32;;;;;;;;;;;;;;;5.10;76.81;100747.19;4975681;28;20285;-78
2022/09/09 03:03:59;;;;;;;;;;;;;;;5.13;77.27;100747.28;4992593;28;19926;-79
2022/09/09 03:06:27;;;;;;;;;;;;;;;5.21;76.43;100749.31;4992567;28;19925;-78
2022/09/09 03:09:02;;;;;;;;;;;;;;;5.22;76.54;100754.53;4992699;28;20016;-77
2022/09/09 03:11:29;;;;;;;;;;;;;;;5.27;76.60;100749.53;4992479;28;19929;-80
2022/09/09 03:13:57;;;;;;;;;;;;;;;5.28;76.96;100751.31;4992647;28;19932;-79
2022/09/09 03:16:26;;;;;;;;;;;;;;;5.28;76.57;100747.00;4992433;28;20016;-78
2022/09/09 03:18:54;;;;;;;;;;;;;;;5.29;76.60;100753.06;4976244;28;19926;-79
2022/09/09 03:21:21;;;;;;;;;;;;;;;5.30;76.41;100755.72;4976100;28;19973;-80
2022/09/09 03:23:48;;;;;;;;;;;;;;;5.30;76.46;100750.56;4976151;28;19926;-79
2022/09/09 03:26:15;;;;;;;;;;;;;;;5.28;76.88;100754.78;4976147;28;19929;-78
2022/09/09 03:28:45;;;;;;;;;;;;;;;5.32;76.50;100755.81;4976054;28;19925;-79
2022/09/09 03:31:15;;;;;;;;;;;;;;;5.33;76.76;100750.69;4984790;28;19930;-79
2022/09/09 03:33:43;;;;;;;;;;;;;;;5.33;77.00;100760.13;4989010;28;20026;-79
2022/09/09 03:36:13;;;;;;;;;;;;;;;5.33;76.85;100760.13;4972858;28;19930;-79
2022/09/09 03:38:40;;;;;;;;;;;;;;;5.31;76.72;100756.59;4983754;28;19932;-82
2022/09/09 03:41:08;;;;;;;;;;;;;;;5.34;76.99;100761.94;4959307;28;19926;-78
2022/09/09 03:43:37;;;;;;;;;;;;;;;5.42;76.72;100767.38;4970374;28;19925;-78
2022/09/09 03:46:04;;;;;;;;;;;;;;;5.56;76.63;100767.94;4993241;28;20418;-79
2022/09/09 03:48:31;;;;;;;;;;;;;;;5.68;76.93;100773.59;4976367;28;19937;-79
2022/09/09 03:51:01;;;;;;;;;;;;;;;5.82;76.61;100763.72;4976014;28;20426;-81
2022/09/09 03:53:30;;;;;;;;;;;;;;;5.99;76.09;100767.84;4993913;28;19926;-75
2022/09/09 03:56:00;;;;;;;;;;;;;;;6.13;75.83;100768.31;4976543;28;19951;-78
2022/09/09 03:58:29;;;;;;;;;;;;;;;6.32;75.28;100769.88;4976894;28;19925;-79
2022/09/09 04:01:03;;;;;;;;;;;;;;;6.49;75.14;100773.91;4979060;28;20020;-81
2022/09/09 04:03:30;;;;;;;;;;;;;;;6.75;75.00;100777.44;4978528;28;19926;-79
2022/09/09 04:05:58;;;;;;;;;;;;;;;6.95;74.70;100777.19;4997007;28;19948;-78
2022/09/09 04:08:27;;;;;;;;;;;;;;;7.22;74.00;100782.38;4979710;28;19925;-80
2022/09/09 04:10:57;;;;;;;;;;;;;;;7.39;73.55;100776.00;4978843;28;19925;-81
2022/09/09 04:13:26;;;;;;;;;;;;;;;7.48;72.99;100782.31;4964626;28;20017;-79
2022/09/09 04:15:56;;;;;;;;;;;;;;;7.61;72.88;100781.84;4959903;28;20385;-81
2022/09/09 04:18:24;;;;;;;;;;;;;;;7.75;72.58;100783.13;4979560;28;19930;-82
2022/09/09 04:20:52;;;;;;;;;;;;;;;7.94;72.20;100778.47;4968064;28;19934;-83
2022/09/09 04:23:24;;;;;;;;;;;;;;;8.05;72.22;100782.25;4967364;28;19933;-79
2022/09/09 04:25:52;;;;;;;;;;;;;;;8.25;71.98;100782.81;4975641;28;19925;-79
2022/09/09 04:28:19;;;;;;;;;;;;;;;8.45;71.38;100780.78;4996446;28;19925;-81
2022/09/09 04:30:47;;;;;;;;;;;;;;;8.59;71.07;100782.03;4985516;28;19937;-77
2022/09/09 04:33:14;;;;;;;;;;;;;;;8.73;70.55;100784.09;4996084;28;20326;-79
2022/09/09 04:35:48;;;;;;;;;;;;;;;8.89;70.69;100790.59;4989512;28;19973;-78
2022/09/09 04:38:18;;;;;;;;;;;;;;;8.89;69.77;100790.59;4979885;28;20009;-80
2022/09/09 04:40:48;;;;;;;;;;;;;;;8.97;69.38;100792.53;4998289;28;19932;-80
2022/09/09 04:43:15;;;;;;;;;;;;;;;9.17;68.95;100792.16;4979725;28;19925;-79
2022/09/09 04:45:44;;;;;;;;;;;;;;;9.27;68.13;100791.53;4981739;28;19978;-78
2022/09/09 04:48:11;;;;;;;;;;;;;;;9.27;68.77;100791.53;4964180;28;19932;-79
2022/09/09 04:50:37;;;;;;;;;;;;;;;9.38;68.76;100792.66;4970030;28;19930;-79
2022/09/09 04:53:05;;;;;;;;;;;;;;;9.52;68.53;100806.00;4979417;28;19925;-79
2022/09/09 04:55:34;;;;;;;;;;;;;;;9.56;67.36;100802.59;4963401;28;19925;-78
2022/09/09 04:58:05;;;;;;;;;;;;;;;9.73;67.37;100809.94;4979953;28;19980;-80
2022/09/09 05:00:33;;;;;;;;;;;;;;;9.90;66.70;100802.47;5007001;28;19929;-77
2022/09/09 05:03:03;;;;;;;;;;;;;;;9.93;66.81;100805.13;4983805;28;19926;-79
2022/09/09 05:05:34;;;;;;;;;;;;;;;10.02;66.69;100800.09;4985761;28;19975;-77
2022/09/09 05:08:02;;;;;;;;;;;;;;;10.11;65.91;100807.22;4988817;28;19926;-81
2022/09/09 05:10:29;;;;;;;;;;;;;;;10.13;66.29;100805.53;4997425;28;19929;-79
2022/09/09 05:12:57;;;;;;;;;;;;;;;10.25;65.34;100808.41;4987884;28;20008;-80
2022/09/09 05:15:27;;;;;;;;;;;;;;;10.35;64.81;100799.94;4987953;28;19932;-78
2022/09/09 05:18:00;;;;;;;;;;;;;;;10.41;65.03;100809.59;4983137;28;19933;-81
2022/09/09 05:20:31;;;;;;;;;;;;;;;10.52;63.70;100813.31;4979204;28;19933;-78
2022/09/09 05:22:58;;;;;;;;;;;;;;;10.53;64.30;100819.41;4994817;28;19977;-80
2022/09/09 05:25:28;;;;;;;;;;;;;;;10.54;64.00;100816.84;4995267;28;19932;-81
2022/09/09 05:27:56;;;;;;;;;;;;;;;10.34;61.88;100826.00;4978613;28;19929;-77
2022/09/09 05:30:26;;;;;;;;;;;;;;;10.34;62.77;100815.56;4995084;28;19936;-80
2022/09/09 05:32:55;;;;;;;;;;;;;;;10.42;62.37;100817.47;4964006;28;20012;-79
2022/09/09 05:35:22;;;;;;;;;;;;;;;10.48;62.90;100816.72;4993908;28;20379;-80
2022/09/09 05:37:49;;;;;;;;;;;;;;;10.50;62.32;100822.84;4993944;28;19932;-79
2022/09/09 05:40:16;;;;;;;;;;;;;;;10.51;62.10;100821.13;4977750;28;19933;-78
2022/09/09 05:42:44;;;;;;;;;;;;;;;10.50;62.14;100817.63;4977439;28;20402;-80
2022/09/09 05:45:11;;;;;;;;;;;;;;;10.54;61.77;100818.53;4995048;28;19925;-80
2022/09/09 05:47:38;;;;;;;;;;;;;;;10.48;61.45;100821.94;4993893;28;20287;-80
2022/09/09 05:50:08;;;;;;;;;;;;;;;10.51;61.64;100828.97;4977749;28;19973;-79
2022/09/09 05:52:38;;;;;;;;;;;;;;;10.49;61.28;100820.22;4977998;28;19926;-78
2022/09/09 05:55:07;;;;;;;;;;;;;;;10.58;61.34;100830.81;4993148;28;20163;-79
2022/09/09 05:57:35;;;;;;;;;;;;;;;10.57;61.05;100832.56;4994924;28;19925;-79
2022/09/09 06:00:03;;;;;;;;;;;;;;;10.61;60.51;100830.91;4977889;28;19933;-80
2022/09/09 06:02:41;;;;;;;;;;;;;;;10.61;61.34;100834.38;4994857;28;19933;-81
2022/09/09 06:05:11;;;;;;;;;;;;;;;10.73;60.69;100832.84;4985829;28;19926;-81
2022/09/09 06:07:41;;;;;;;;;;;;;;;10.84;60.47;100836.50;4964535;28;19926;-80
2022/09/09 06:10:09;;;;;;;;;;;;;;;10.91;60.42;100840.16;4964257;28;20371;-80
2022/09/09 06:12:38;;;;;;;;;;;;;;;10.95;60.43;100839.31;4974546;28;19925;-80
2022/09/09 06:15:08;;;;;;;;;;;;;;;10.88;59.66;100837.47;4958834;28;19926;-80
2022/09/09 06:17:36;;;;;;;;;;;;;;;10.93;59.62;100846.28;4983438;28;19925;-80
2022/09/09 06:20:03;;;;;;;;;;;;;;;10.87;58.98;100841.81;4978176;28;20413;-79
2022/09/09 06:22:31;;;;;;;;;;;;;;;10.89;58.90;100852.31;4977880;28;20301;-80
2022/09/09 06:25:00;;;;;;;;;;;;;;;10.68;58.09;100844.94;4962707;28;20028;-80
2022/09/09 06:27:29;;;;;;;;;;;;;;;10.73;58.20;100846.78;5013261;28;19929;-80
2022/09/09 06:29:55;;;;;;;;;;;;;;;10.76;57.33;100841.63;5007232;28;19933;-79
2022/09/09 06:32:22;;;;;;;;;;;;;;;10.86;56.90;100853.09;5004857;28;19925;-81
2022/09/09 06:34:50;;;;;;;;;;;;;;;10.89;57.30;100847.97;4972596;28;20460;-82
2022/09/09 06:37:17;;;;;;;;;;;;;;;10.95;55.61;100849.78;4957931;28;19933;-79
2022/09/09 06:39:48;;;;;;;;;;;;;;;10.80;54.28;100850.41;4973201;28;19930;-79
2022/09/09 06:42:15;;;;;;;;;;;;;;;10.80;54.83;100848.66;4957719;28;19933;-80
2022/09/09 06:44:48;;;;;;;;;;;;;;;10.83;53.76;100850.47;4974762;28;20441;-78
2022/09/09 06:47:25;;;;;;;;;;;;;;;10.93;54.10;100854.13;4957835;28;19961;-80
2022/09/09 06:49:53;;;;;;;;;;;;;;;11.17;53.21;100856.28;4974708;28;19957;-79
2022/09/09 06:52:20;;;;;;;;;;;;;;;11.09;52.90;100853.53;4958743;28;19930;-79
2022/09/09 06:54:47;;;;;;;;;;;;;;;11.18;53.06;100853.66;4986990;28;19926;-78
2022/09/09 06:57:15;;;;;;;;;;;;;;;11.41;50.56;100863.63;4977003;28;20028;-79
2022/09/09 07:00:03;;;;;;;;;;;;;;;11.39;50.04;100861.00;4979604;28;19932;-80
2022/09/09 07:02:30;;;;;;;;;;;;;;;11.51;49.47;100872.50;4990168;28;19969;-80
2022/09/09 07:04:58;;;;;;;;;;;;;;;11.50;47.44;100862.91;4985912;28;19980;-81
2022/09/09 07:07:26;;;;;;;;;;;;;;;11.46;47.77;100867.19;4977739;28;19929;-80
2022/09/09 07:09:59;;;;;;;;;;;;;;;11.57;47.09;100865.66;4995773;28;19933;-79
2022/09/09 07:12:29;;;;;;;;;;;;;;;11.67;47.01;100867.53;4978284;28;20032;-78
2022/09/09 07:15:00;;;;;;;;;;;;;;;11.70;46.37;100858.84;4993800;28;19925;-82
2022/09/09 07:17:30;;;;;;;;;;;;;;;11.92;46.70;100867.94;4965825;28;19981;-83
2022/09/09 07:19:59;;;;;;;;;;;;;;;12.17;45.60;100865.63;4959416;28;20377;-82
2022/09/09 07:22:28;;;;;;;;;;;;;;;12.22;46.22;100877.06;4973932;28;19930;-82
2022/09/09 07:25:02;;;;;;;;;;;;;;;11.98;45.85;100878.50;4957763;28;19925;-82
2022/09/09 07:27:30;;;;;;;;;;;;;;;11.67;44.36;100888.47;4973979;28;20433;-82
2022/09/09 07:29:57;;;;;;;;;;;;;;;11.51;45.60;100885.56;4957150;28;19926;-80
2022/09/09 07:32:30;;;;;;;;;;;;;;;11.64;46.08;100877.97;4973256;28;19926;-81
2022/09/09 07:34:58;;;;;;;;;;;;;;;12.06;45.61;100889.91;4974759;28;19981;-83
2022/09/09 07:37:29;;;;;;;;;;;;;;;12.43;44.81;100887.81;4978048;28;19930;-81
2022/09/09 07:39:56;;;;;;;;;;;;;;;12.83;44.27;100883.00;4995673;28;19932;-82
2022/09/09 07:42:30;;;;;;;;;;;;;;;13.42;44.16;100884.44;4988803;28;19976;-80
2022/09/09 07:45:01;;;;;;;;;;;;;;;14.00;43.04;100883.06;4961429;28;19932;-80
2022/09/09 07:47:29;;;;;;;;;;;;;;;13.80;43.13;100896.97;4978125;28;19929;-80
2022/09/09 07:49:56;;;;;;;;;;;;;;;13.56;44.56;100892.41;4977852;28;19988;-78
2022/09/09 07:52:29;;;;;;;;;;;;;;;13.37;44.24;100894.00;4945864;28;19930;-78
2022/09/09 07:55:01;;;;;;;;;;;;;;;13.27;45.02;100890.41;4960862;28;19925;-78
2022/09/09 07:57:30;;;;;;;;;;;;;;;13.25;45.36;100889.53;4944170;28;19926;-80
2022/09/09 07:59:57;;;;;;;;;;;;;;;13.21;45.39;100894.72;4960050;28;19926;-78
2022/09/09 08:02:25;;;;;;;;;;;;;;;13.36;45.43;100900.16;4943652;28;19932;-79
2022/09/09 08:04:52;;;;;;;;;;;;;;;13.63;45.30;100899.47;4960320;28;19927;-80
2022/09/09 08:07:21;;;;;;;;;;;;;;;13.80;45.17;100898.72;4976121;28;20394;-79
2022/09/09 08:09:54;;;;;;;;;;;;;;;13.65;44.69;100902.09;4959819;28;19925;-79
2022/09/09 08:12:25;;;;;;;;;;;;;;;13.21;44.42;100911.34;4976694;28;19926;-78
2022/09/09 08:14:53;;;;;;;;;;;;;;;12.68;44.73;100898.56;4960419;28;19980;-77
2022/09/09 08:17:24;;;;;;;;;;;;;;;12.66;45.09;100905.53;4960559;28;19961;-81
2022/09/09 08:19:51;;;;;;;;;;;;;;;13.08;43.83;100901.63;4960301;28;19977;-77
2022/09/09 08:22:22;;;;;;;;;;;;;;;13.67;42.93;100901.25;4960495;28;19961;-80
2022/09/09 08:24:49;;;;;;;;;;;;;;;14.28;41.91;100903.38;4977953;28;19989;-79
2022/09/09 08:27:17;;;;;;;;;;;;;;;14.05;41.04;100905.00;4962008;28;20020;-79
2022/09/09 08:29:44;;;;;;;;;;;;;;;13.85;41.86;100911.03;4977594;28;19976;-79
2022/09/09 08:32:11;;;;;;;;;;;;;;;13.72;42.54;100917.94;4976111;28;19961;-79
2022/09/09 08:34:41;;;;;;;;;;;;;;;13.48;42.55;100915.09;4959292;28;19932;-79
2022/09/09 08:37:19;;;;;;;;;;;;;;;13.23;43.83;100916.63;4975718;28;20400;-79
2022/09/09 08:39:48;;;;;;;;;;;;;;;13.17;43.88;100906.06;4976893;28;19926;-79
2022/09/09 08:42:28;;;;;;;;;;;;;;;13.04;44.13;100907.69;4975752;28;19957;-78
2022/09/09 08:45:00;;;;;;;;;;;;;;;13.13;43.75;100918.25;4959417;28;20401;-78
2022/09/09 08:47:42;;;;;;;;;;;;;;;13.28;43.57;100915.81;4959562;28;19937;-77
2022/09/09 08:50:24;;;;;;;;;;;;;;;13.79;42.69;100923.19;4976597;28;19932;-79
2022/09/09 08:53:00;;;;;;;;;;;;;;;13.96;41.46;100911.09;4959141;28;19925;-79
2022/09/09 08:55:38;;;;;;;;;;;;;;;14.14;41.92;100918.19;4975453;28;19926;-78
2022/09/09 08:58:12;;;;;;;;;;;;;;;14.26;41.70;100920.00;4959025;28;19942;-78
2022/09/09 09:00:54;;;;;;;;;;;;;;;13.75;41.37;100903.94;4976422;28;19957;-78
2022/09/09 09:03:41;;;;;;;;;;;;;;;13.23;42.84;100914.00;4976795;28;19926;-78
2022/09/09 09:06:22;;;;;;;;;;;;;;;13.04;42.92;100907.69;4962065;28;19929;-79
2022/09/09 09:09:02;;;;;;;;;;;;;;;13.14;43.15;100914.75;4959552;28;19930;-78
2022/09/09 09:12:02;;;;;;;;;;;;;;;13.27;42.29;100916.66;4958991;28;19926;-77
2022/09/09 09:14:37;;;;;;;;;;;;;;;13.60;41.46;100904.69;4952754;28;19933;-78
2022/09/09 09:17:13;;;;;;;;;;;;;;;13.98;41.20;100905.81;4943566;28;20342;-79
2022/09/09 09:19:41;;;;;;;;;;;;;;;14.49;40.32;100896.44;4979122;28;20354;-77
2022/09/09 09:22:26;;;;;;;;;;;;;;;14.49;39.02;100897.31;4977659;28;19933;-78
2022/09/09 09:25:23;;;;;;;;;;;;;;;14.30;39.98;100908.63;4985662;28;19926;-80
2022/09/09 09:28:05;;;;;;;;;;;;;;;14.20;40.77;100919.97;4986751;28;19980;-78
2022/09/09 09:30:47;;;;;;;;;;;;;;;14.03;40.72;100915.50;4960112;28;19926;-79
2022/09/09 09:33:24;;;;;;;;;;;;;;;13.91;39.77;100923.28;4985635;28;19985;-78
2022/09/09 09:35:51;;;;;;;;;;;;;;;13.71;40.41;100917.91;4982108;28;19926;-79
2022/09/09 09:38:22;;;;;;;;;;;;;;;13.90;40.45;100929.44;4981247;28;19937;-80
2022/09/09 09:41:10;;;;;;;;;;;;;;;13.56;41.02;100912.56;4965774;28;19961;-79
2022/09/09 09:43:39;;;;;;;;;;;;;;;13.49;41.29;100917.75;4975190;28;19949;-79
2022/09/09 09:46:23;;;;;;;;;;;;;;;13.65;41.04;100916.09;4958684;28;19936;-77
2022/09/09 09:49:06;;;;;;;;;;;;;;;14.11;40.22;100913.81;4973639;28;19925;-80
2022/09/09 09:51:34;;;;;;;;;;;;;;;14.17;40.24;100912.06;4979130;28;20024;-78
2022/09/09 09:54:08;;;;;;;;;;;;;;;14.22;40.83;100911.22;4957765;28;19926;-78
2022/09/09 09:56:37;;;;;;;;;;;;;;;14.10;40.37;100925.16;4957976;28;20438;-78
2022/09/09 09:59:19;;;;;;;;;;;;;;;13.96;40.65;100921.59;4957586;28;19957;-78
2022/09/09 10:02:10;;;;;;;;;;;;;;;13.60;40.70;100930.09;4973613;28;19930;-77
2022/09/09 10:04:39;;;;;;;;;;;;;;;13.47;40.74;100932.59;4975135;28;20437;-78
2022/09/09 10:07:34;;;;;;;;;;;;;;;13.56;40.87;100921.28;4975477;28;19937;-78
2022/09/09 10:10:01;;;;;;;;;;;;;;;14.05;40.18;100924.28;4957712;28;19932;-78
2022/09/09 10:12:43;;;;;;;;;;;;;;;14.84;39.14;100906.22;4974980;28;20505;-78
2022/09/09 10:15:25;;;;;;;;;;;;;;;15.45;38.45;100903.69;4983591;28;19925;-79
2022/09/09 10:18:07;;;;;;;;;;;;;;;15.60;38.11;100905.44;4986652;28;19981;-77
2022/09/09 10:20:39;;;;;;;;;;;;;;;15.28;38.35;100916.81;4986277;28;19932;-78
2022/09/09 10:23:25;;;;;;;;;;;;;;;15.08;39.11;100916.81;4994589;28;19925;-80
2022/09/09 10:25:58;;;;;;;;;;;;;;;14.82;39.59;100913.22;4997919;28;19926;-81
2022/09/09 10:28:37;;;;;;;;;;;;;;;14.84;39.84;100907.13;4999587;28;19968;-79
2022/09/09 10:31:24;;;;;;;;;;;;;;;15.22;39.05;100914.19;4998703;28;20088;-81
2022/09/09 10:34:11;;;;;;;;;;;;;;;15.51;38.20;100908.94;4992903;28;19925;-80
2022/09/09 10:36:41;;;;;;;;;;;;;;;15.66;37.91;100909.78;4992951;28;19932;-80
2022/09/09 10:39:14;;;;;;;;;;;;;;;15.51;38.13;100914.22;4993927;28;19925;-80
2022/09/09 10:41:45;;;;;;;;;;;;;;;15.04;38.43;100922.06;4994099;28;19927;-80
2022/09/09 10:44:17;;;;;;;;;;;;;;;14.52;38.46;100913.13;4993531;28;19961;-79
2022/09/09 10:47:02;;;;;;;;;;;;;;;14.48;38.59;100923.63;4993445;28;20366;-79
2022/09/09 10:50:02;;;;;;;;;;;;;;;14.56;38.25;100928.91;4993019;28;19976;-78
2022/09/09 10:52:48;;;;;;;;;;;;;;;14.87;38.30;100924.66;4994097;28;19980;-79
2022/09/09 10:55:19;;;;;;;;;;;;;;;15.36;37.68;100914.22;4981257;28;19925;-82
2022/09/09 10:57:48;;;;;;;;;;;;;;;15.77;37.72;100910.72;4974834;28;20445;-80
2022/09/09 11:00:20;;;;;;;;;;;;;;;16.15;37.42;100909.75;4974746;28;19933;-80
2022/09/09 11:02:58;;;;;;;;;;;;;;;16.13;37.05;100914.13;4957208;28;19926;-79
2022/09/09 11:05:28;;;;;;;;;;;;;;;15.62;36.87;100913.34;4974788;28;19930;-79
2022/09/09 11:07:58;;;;;;;;;;;;;;;15.58;36.60;100912.44;4974292;28;20406;-78
2022/09/09 11:10:42;;;;;;;;;;;;;;;15.53;36.57;100916.81;4978223;28;19936;-81
2022/09/09 11:13:15;;;;;;;;;;;;;;;15.38;36.39;100915.09;4976871;28;19933;-79
2022/09/09 11:15:44;;;;;;;;;;;;;;;15.59;36.56;100905.41;4978726;28;19953;-81
2022/09/09 11:18:13;;;;;;;;;;;;;;;15.40;36.58;100915.06;4978379;28;19955;-80
2022/09/09 11:20:41;;;;;;;;;;;;;;;15.15;36.76;100912.44;4978211;28;20453;-81
2022/09/09 11:23:11;;;;;;;;;;;;;;;14.85;37.23;100916.75;4978408;28;19976;-81
2022/09/09 11:26:04;;;;;;;;;;;;;;;14.58;37.53;100912.28;4978756;28;19925;-79
2022/09/09 11:28:31;;;;;;;;;;;;;;;14.90;38.12;100907.09;4981099;28;19929;-80
2022/09/09 11:31:17;;;;;;;;;;;;;;;15.17;37.19;100917.72;4992918;28;19926;-79
2022/09/09 11:34:00;;;;;;;;;;;;;;;14.74;37.35;100921.13;4991446;28;19993;-80
2022/09/09 11:36:52;;;;;;;;;;;;;;;14.33;37.43;100908.66;4984331;28;20383;-79
2022/09/09 11:39:35;;;;;;;;;;;;;;;14.23;37.66;100922.63;4993114;28;20306;-80
2022/09/09 11:42:14;;;;;;;;;;;;;;;14.28;38.11;100927.03;4978652;28;19926;-76
2022/09/09 11:44:42;;;;;;;;;;;;;;;14.16;38.24;100919.06;4978945;28;19925;-80
2022/09/09 11:47:19;;;;;;;;;;;;;;;14.00;38.54;100928.59;4961218;28;19933;-79
2022/09/09 11:49:46;;;;;;;;;;;;;;;13.98;38.74;100918.97;4978431;28;19930;-80
2022/09/09 11:52:21;;;;;;;;;;;;;;;14.14;38.81;100920.81;4978076;28;19925;-77
2022/09/09 11:54:49;;;;;;;;;;;;;;;14.55;38.48;100914.91;4977771;28;20018;-79
2022/09/09 11:57:34;;;;;;;;;;;;;;;14.86;37.89;100905.38;4977534;28;19930;-79
2022/09/09 12:00:04;;;;;;;;;;;;;;;15.15;37.32;100902.78;4977495;28;19926;-78
2022/09/09 12:02:48;;;;;;;;;;;;;;;15.53;36.73;100901.91;4978144;28;19926;-79
2022/09/09 12:05:15;;;;;;;;;;;;;;;15.71;36.41;100903.69;4978229;28;20032;-79
2022/09/09 12:08:03;;;;;;;;;;;;;;;15.40;35.66;100909.81;4959907;28;19926;-78
2022/09/09 12:10:35;;;;;;;;;;;;;;;14.75;36.29;100922.84;4977466;28;19972;-79
2022/09/09 12:13:19;;;;;;;;;;;;;;;14.34;37.28;100921.78;4977480;28;20040;-80
2022/09/09 12:15:48;;;;;;;;;;;;;;;14.16;37.81;100915.56;4960529;28;19926;-79
2022/09/09 12:18:22;;;;;;;;;;;;;;;14.26;37.59;100915.63;4977244;28;19987;-79
2022/09/09 12:20:56;;;;;;;;;;;;;;;14.46;37.34;100904.34;4976573;28;19949;-80
2022/09/09 12:23:24;;;;;;;;;;;;;;;14.46;37.38;100912.22;4977486;28;19957;-79
2022/09/09 12:25:59;;;;;;;;;;;;;;;14.21;38.11;100909.47;4959812;28;19948;-79
2022/09/09 12:28:42;;;;;;;;;;;;;;;13.84;38.41;100914.50;4976827;28;20302;-80
2022/09/09 12:31:23;;;;;;;;;;;;;;;13.59;38.74;100913.44;4980823;28;19925;-78
2022/09/09 12:33:52;;;;;;;;;;;;;;;13.43;39.50;100924.69;4983220;28;19932;-82
2022/09/09 12:36:27;;;;;;;;;;;;;;;13.30;39.91;100911.47;4995874;28;20017;-79
2022/09/09 12:38:56;;;;;;;;;;;;;;;13.15;40.19;100911.28;4985654;28;19926;-77
2022/09/09 12:41:25;;;;;;;;;;;;;;;13.07;40.59;100911.19;4976384;28;20304;-78
2022/09/09 12:44:03;;;;;;;;;;;;;;;12.98;40.85;100910.25;4980044;28;19926;-76
2022/09/09 12:46:41;;;;;;;;;;;;;;;12.99;40.96;100910.28;4993675;28;19972;-78
2022/09/09 12:49:25;;;;;;;;;;;;;;;13.13;41.04;100914.78;4996032;28;19925;-78
2022/09/09 12:51:52;;;;;;;;;;;;;;;13.49;40.40;100914.25;4996287;28;20023;-77
2022/09/09 12:54:19;;;;;;;;;;;;;;;13.67;39.81;100911.75;4955017;28;19925;-78
2022/09/09 12:56:48;;;;;;;;;;;;;;;13.50;39.13;100911.63;4979418;28;19937;-77
2022/09/09 12:59:26;;;;;;;;;;;;;;;13.29;38.97;100909.72;4976099;28;19989;-77
2022/09/09 13:01:58;;;;;;;;;;;;;;;13.14;39.37;100908.63;4982265;28;19925;-78
2022/09/09 13:04:25;;;;;;;;;;;;;;;13.05;39.98;100914.69;4976255;28;20405;-77
2022/09/09 13:06:52;;;;;;;;;;;;;;;13.06;40.06;100911.22;4978385;28;19960;-77
2022/09/09 13:09:19;;;;;;;;;;;;;;;13.09;40.39;100919.97;4976312;28;20362;-76